• Join FlightAware (Why Join?)
  • Login
  • US Flag 
04:13AM EDT


 

Airport Tracker/Info


-or-


 

Live Flight TrackerFlight Track Log ✈ FIN666 ✈ 16-Oct-2013 ✈ EKCH / CPH - EFHK / HEL

Flight Track Log - Related Links

Times and Time Zones

All times are in EDT time to prevent confusion due to time zone crossing. See the FIN666 flight status page for this flight to view local times or setup timezone preferences in your user account.

Time Position Orientation Groundspeed Altitude Reporting Facility
EDT Latitude Longitude Course Direction KTS MPH feet Rate Location/Type
07:34AM 55.8329 13.1000 49° Northeast  Level Estimated
07:35AM 55.9042 13.2491 50° Northeast  Level Estimated
07:36AM 55.9753 13.3988 50° Northeast  Level Estimated
07:37AM 56.0462 13.5490 50° Northeast  Level Estimated
07:38AM 56.1170 13.6997 50° Northeast  Level Estimated
07:39AM 56.1875 13.8511 50° Northeast  Level Estimated
07:40AM 56.2579 14.0029 50° Northeast  Level Estimated
07:41AM 56.3281 14.1554 50° Northeast  Level Estimated
07:42AM 56.3981 14.3083 50° Northeast  Level Estimated
07:43AM 56.4679 14.4619 51° Northeast  Level Estimated
07:44AM 56.5375 14.6160 51° Northeast  Level Estimated
07:45AM 56.6069 14.7707 51° Northeast  Level Estimated
07:46AM 56.6762 14.9260 51° Northeast  Level Estimated
07:47AM 56.7452 15.0818 51° Northeast  Level Estimated
07:48AM 56.8141 15.2382 51° Northeast  Level Estimated
07:49AM 56.8827 15.3951 51° Northeast  Level Estimated
07:50AM 56.9584 15.5694 51° Northeast  Level Estimated
07:51AM 57.0339 15.7444 52° Northeast  Level Estimated
07:52AM 57.1091 15.9201 52° Northeast  Level Estimated
07:53AM 57.1841 16.0966 52° Northeast  Level Estimated
07:54AM 57.2588 16.2737 52° Northeast  Level Estimated
07:55AM 57.3333 16.4516 52° Northeast  Level Estimated
07:56AM 57.4075 16.6301 52° Northeast  Level Estimated
07:57AM 57.4815 16.8095 52° Northeast  Level Estimated
07:58AM 57.5552 16.9895 53° Northeast  Level Estimated
07:59AM 57.6286 17.1702 53° Northeast  Level Estimated
08:00AM 57.7018 17.3517 53° Northeast  Level Estimated
08:01AM 57.7747 17.5340 53° Northeast  Level Estimated
08:02AM 57.8474 17.7169 53° Northeast  Level Estimated
08:03AM 57.9198 17.9006 53° Northeast  Level Estimated
08:04AM 57.9920 18.0851 54° Northeast  Level Estimated
08:05AM 58.0661 18.2761 54° Northeast  Level Estimated
08:06AM 58.1399 18.4678 54° Northeast  Level Estimated
08:07AM 58.2135 18.6604 54° Northeast  Level Estimated
08:08AM 58.2867 18.8538 54° Northeast  Level Estimated
08:09AM 58.3596 19.0479 54° Northeast  Level Estimated
08:10AM 58.4323 19.2429 54° Northeast  Level Estimated
08:11AM 58.5047 19.4387 55° Northeast  Level Estimated
08:12AM 58.5767 19.6353 55° Northeast  Level Estimated
08:13AM 58.6485 19.8327 55° Northeast  Level Estimated
08:14AM 58.7200 20.0309 55° Northeast  Level Estimated
08:15AM 58.7911 20.2299 55° Northeast  Level Estimated
08:16AM 58.8619 20.4297 56° Northeast  Level Estimated
08:17AM 58.9325 20.6304 56° Northeast  Level Estimated
08:18AM 59.0027 20.8318 56° Northeast  Level Estimated
08:19AM 59.0726 21.0341 56° Northeast  Level Estimated
08:20AM 59.1422 21.2372 56° Northeast  Level Estimated
08:21AM 59.2115 21.4412 56° Northeast  Level Estimated
08:22AM 59.2804 21.6460 57° Northeast  Level Estimated
08:23AM 59.3491 21.8515 57° Northeast  Level Estimated
08:24AM 59.4174 22.0580 57° Northeast  Level Estimated
08:25AM 59.4854 22.2652 57° Northeast  Level Estimated
08:26AM 59.5530 22.4733 57° Northeast  Level Estimated
08:27AM 59.6203 22.6823 57° Northeast  Level Estimated
08:28AM 59.6873 22.8920 58° Northeast  Level Estimated
08:29AM 59.7540 23.1026 58° Northeast  Level Estimated
08:30AM 59.8203 23.3141 58° Northeast  Level Estimated
08:31AM 59.8862 23.5264 58° Northeast  Level Estimated
08:32AM 59.9519 23.7395 58° Northeast  Level Estimated
08:33AM 60.0172 23.9535 59° Northeast  Level Estimated
08:34AM 60.0821 24.1683 59° Northeast  Level Estimated
08:35AM 60.1467 24.3840 59° Northeast  Level Estimated
08:36AM 60.2109 24.6005 59° Northeast  Level Estimated
08:37AM 60.2748 24.8179 59° Northeast  Level Estimated
08:38AM 60.3172 24.9633 59° Northeast  Level Estimated
08:39AM 60.3172 24.9633 37° Northeast  Level Estimated
08:40AM 60.3172 24.9633 37° Northeast  Level Estimated
08:41AM 60.3172 24.9633 37° Northeast  Level Estimated
08:42AM 60.3172 24.9633 37° Northeast  Level Estimated
08:43AM 60.3172 24.9633 37° Northeast  Level Estimated
08:44AM 60.3172 24.9633 37° Northeast  Level Estimated
08:45AM 60.3172 24.9633 37° Northeast  Level Estimated
08:46AM 60.3172 24.9633 37° Northeast  Level Estimated
08:47AM 60.3172 24.9633 37° Northeast  Level Estimated
08:48AM 60.3172 24.9633 37° Northeast  Level Estimated
08:49AM 60.3172 24.9633 37° Northeast  Level Estimated
08:50AM 60.3172 24.9633 37° Northeast  Level Estimated
08:51AM 60.3172 24.9633 37° Northeast  Level Estimated